Gas Grouper — V7TZ2 — position and weather

sailwx.info

Track history (hours):
 
Tides and Currents Weather Stations Pressure Air Temp Water Temp Dewpoint Dewpoint Depression Visibility Wind Speed Wind Dir Waves Ship Positions

Gas Grouper

Last reported at 2014-Oct-30 18:32 UTC. Time now 2014-Nov-01 02:04 UTC.
Position N 36°50' E 001°14'.

Length 174 m; draft 7.2 m.

Type: Tanker. MMSI: 538003910.

Date/timePositionNaut miles runAvg speedWind from/ knotsBaromVisibWave heightAir tempDewpointWater temp
2014-Oct-30 18:32N 36°50' E 001°14'1616.6
2014-Oct-30 17:33N 36°47' E 000°54'1616.1
2014-Oct-30 16:33N 36°44' E 000°35'1616.1
2014-Oct-30 15:34N 36°41' E 000°15'27116.0
2014-Oct-29 22:34N 35°59' W 005°18'10414.9
2014-Oct-29 15:33N 36°08' W 007°26'1515.3
2014-Oct-29 14:33N 36°12' W 007°45'1514.9
2014-Oct-29 13:33N 36°15' W 008°03'2016.1
2014-Oct-29 12:18N 36°20' W 008°27'1013.2
2014-Oct-29 11:33N 36°22' W 008°39'1515.5
2014-Oct-29 10:33N 36°26' W 008°58'1515.4
2014-Oct-29 09:34N 36°29' W 009°16'3614.9
2014-Oct-29 07:08N 36°59' W 009°42'2815.3
2014-Oct-29 05:19N 37°26' W 009°50'1115.1
2014-Oct-29 04:34N 37°37' W 009°53'1615.6
2014-Oct-29 03:33N 37°52' W 009°58'1716.1
2014-Oct-29 02:31N 38°09' W 010°04'1816.3
2014-Oct-29 01:23N 38°27' W 010°08'48015.5
2014-Oct-27 18:22N 46°17' W 007°55'1316.1
2014-Oct-27 17:33N 46°28' W 007°46'1616.2
2014-Oct-27 16:33N 46°42' W 007°34'1616.4
2014-Oct-27 15:33N 46°57' W 007°23'1815.6
2014-Oct-27 14:23N 47°13' W 007°10'1315.9
2014-Oct-27 13:33N 47°24' W 007°01'4016.2
2014-Oct-27 11:07N 47°59' W 006°33'16415.0
2014-Oct-27 00:11N 49°49' W 003°27'1016.5
2014-Oct-26 23:33N 49°54' W 003°13'1515.2
2014-Oct-26 22:34N 49°60' W 002°52'1513.9
2014-Oct-26 21:27N 50°04' W 002°29'1712.9
2014-Oct-26 20:09N 50°08' W 002°03'7716.3
2014-Oct-26 15:24N 50°30' W 000°07'1516.7
2014-Oct-26 14:28N 50°34' E 000°17'1415.7
2014-Oct-26 13:34N 50°38' E 000°38'1514.8
2014-Oct-26 12:33N 50°48' E 000°56'1614.1
2014-Oct-26 11:25N 50°58' E 001°15'1315.3
2014-Oct-26 10:33N 51°06' E 001°33'1817.6
2014-Oct-26 09:34N 51°18' E 001°52'1413.7
2014-Oct-26 08:33N 51°21' E 002°14'1716.7
2014-Oct-26 07:33N 51°22' E 002°40'1514.6
2014-Oct-26 06:31N 51°24' E 003°04'1616.4
2014-Oct-26 05:33N 51°25' E 003°29'1212.0
2014-Oct-26 04:34N 51°21' E 003°48'10 9.5
2014-Oct-26 03:33N 51°23' E 004°02'9 9.4
2014-Oct-26 02:33N 51°21' E 004°17'0 0.0
2014-Oct-26 01:34N 51°21' E 004°17'1 0.5
2014-Oct-25 23:29N 51°22' E 004°17'0 0.0
2014-Oct-24 13:33N 51°22' E 004°17'1 0.9
2014-Oct-24 12:33N 51°21' E 004°17'1 0.6
2014-Oct-24 11:34N 51°21' E 004°16'10 9.5
2014-Oct-24 10:34N 51°24' E 004°02'1110.8
2014-Oct-24 09:33N 51°22' E 003°45'10 9.8
2014-Oct-24 08:33N 51°25' E 003°30'1313.0
2014-Oct-24 07:33N 51°24' E 003°09'1412.3
2014-Oct-24 06:26N 51°21' E 002°48'6 6.7
2014-Oct-24 05:33N 51°25' E 002°40'1 0.6
2014-Oct-24 04:33N 51°25' E 002°39'0 0.1
2014-Oct-24 03:32N 51°25' E 002°39'6 6.3
2014-Oct-24 02:33N 51°22' E 002°30'1313.3
2014-Oct-24 01:34N 51°15' E 002°12'1413.5
2014-Oct-24 00:33N 51°09' E 001°53'1514.6
2014-Oct-23 23:34N 50°59' E 001°36'1716.8
2014-Oct-23 22:33N 50°44' E 001°23'  
2014-Oct-21 09:32N 39°16' W 009°57'1414.4
2014-Oct-21 08:33N 39°02' W 009°57'1414.5
2014-Oct-21 07:33N 38°47' W 009°57'1514.6
2014-Oct-21 06:33N 38°33' W 009°54'1514.7
2014-Oct-21 05:33N 38°19' W 009°50'1514.9
2014-Oct-21 04:33N 38°04' W 009°46'1515.1
2014-Oct-21 03:33N 37°49' W 009°41'1514.8
2014-Oct-21 02:33N 37°35' W 009°37'1515.1
2014-Oct-21 01:33N 37°20' W 009°33'1515.2
2014-Oct-21 00:33N 37°05' W 009°29'1514.6
2014-Oct-20 23:33N 36°51' W 009°25'1714.0
2014-Oct-20 22:20N 36°40' W 009°09'1314.6
2014-Oct-20 21:25N 36°36' W 008°53'1314.7
2014-Oct-20 20:33N 36°32' W 008°38'1614.7
2014-Oct-20 19:29N 36°28' W 008°19'  
Track history (hours):
 
Tides and Currents Weather Stations Pressure Air Temp Water Temp Dewpoint Dewpoint Depression Visibility Wind Speed Wind Dir Waves Ship Positions

Gas Grouper

Last reported at 2014-Oct-30 18:32 UTC. Time now 2014-Nov-01 02:04 UTC.
Position N 36°50' E 001°14'.

Length 174 m; draft 7.2 m.

Type: Tanker. MMSI: 538003910.

Date/timePositionNaut miles runAvg speedWind from/ knotsBaromVisibWave heightAir tempDewpointWater temp
2014-Oct-30 18:32N 36°50' E 001°14'1616.6
2014-Oct-30 17:33N 36°47' E 000°54'1616.1
2014-Oct-30 16:33N 36°44' E 000°35'1616.1
2014-Oct-30 15:34N 36°41' E 000°15'27116.0
2014-Oct-29 22:34N 35°59' W 005°18'10414.9
2014-Oct-29 15:33N 36°08' W 007°26'1515.3
2014-Oct-29 14:33N 36°12' W 007°45'1514.9
2014-Oct-29 13:33N 36°15' W 008°03'2016.1
2014-Oct-29 12:18N 36°20' W 008°27'1013.2
2014-Oct-29 11:33N 36°22' W 008°39'1515.5
2014-Oct-29 10:33N 36°26' W 008°58'1515.4
2014-Oct-29 09:34N 36°29' W 009°16'3614.9
2014-Oct-29 07:08N 36°59' W 009°42'2815.3
2014-Oct-29 05:19N 37°26' W 009°50'1115.1
2014-Oct-29 04:34N 37°37' W 009°53'1615.6
2014-Oct-29 03:33N 37°52' W 009°58'1716.1
2014-Oct-29 02:31N 38°09' W 010°04'1816.3
2014-Oct-29 01:23N 38°27' W 010°08'48015.5
2014-Oct-27 18:22N 46°17' W 007°55'1316.1
2014-Oct-27 17:33N 46°28' W 007°46'1616.2
2014-Oct-27 16:33N 46°42' W 007°34'1616.4
2014-Oct-27 15:33N 46°57' W 007°23'1815.6
2014-Oct-27 14:23N 47°13' W 007°10'1315.9
2014-Oct-27 13:33N 47°24' W 007°01'4016.2
2014-Oct-27 11:07N 47°59' W 006°33'16415.0
2014-Oct-27 00:11N 49°49' W 003°27'1016.5
2014-Oct-26 23:33N 49°54' W 003°13'1515.2
2014-Oct-26 22:34N 49°60' W 002°52'1513.9
2014-Oct-26 21:27N 50°04' W 002°29'1712.9
2014-Oct-26 20:09N 50°08' W 002°03'7716.3
2014-Oct-26 15:24N 50°30' W 000°07'1516.7
2014-Oct-26 14:28N 50°34' E 000°17'1415.7
2014-Oct-26 13:34N 50°38' E 000°38'1514.8
2014-Oct-26 12:33N 50°48' E 000°56'1614.1
2014-Oct-26 11:25N 50°58' E 001°15'1315.3
2014-Oct-26 10:33N 51°06' E 001°33'1817.6
2014-Oct-26 09:34N 51°18' E 001°52'1413.7
2014-Oct-26 08:33N 51°21' E 002°14'1716.7
2014-Oct-26 07:33N 51°22' E 002°40'1514.6
2014-Oct-26 06:31N 51°24' E 003°04'1616.4
2014-Oct-26 05:33N 51°25' E 003°29'1212.0
2014-Oct-26 04:34N 51°21' E 003°48'10 9.5
2014-Oct-26 03:33N 51°23' E 004°02'9 9.4
2014-Oct-26 02:33N 51°21' E 004°17'0 0.0
2014-Oct-26 01:34N 51°21' E 004°17'1 0.5
2014-Oct-25 23:29N 51°22' E 004°17'0 0.0
2014-Oct-24 13:33N 51°22' E 004°17'1 0.9
2014-Oct-24 12:33N 51°21' E 004°17'1 0.6
2014-Oct-24 11:34N 51°21' E 004°16'10 9.5
2014-Oct-24 10:34N 51°24' E 004°02'1110.8
2014-Oct-24 09:33N 51°22' E 003°45'10 9.8
2014-Oct-24 08:33N 51°25' E 003°30'1313.0
2014-Oct-24 07:33N 51°24' E 003°09'1412.3
2014-Oct-24 06:26N 51°21' E 002°48'6 6.7
2014-Oct-24 05:33N 51°25' E 002°40'1 0.6
2014-Oct-24 04:33N 51°25' E 002°39'0 0.1
2014-Oct-24 03:32N 51°25' E 002°39'6 6.3
2014-Oct-24 02:33N 51°22' E 002°30'1313.3
2014-Oct-24 01:34N 51°15' E 002°12'1413.5
2014-Oct-24 00:33N 51°09' E 001°53'1514.6
2014-Oct-23 23:34N 50°59' E 001°36'1716.8
2014-Oct-23 22:33N 50°44' E 001°23'  
2014-Oct-21 09:32N 39°16' W 009°57'1414.4
2014-Oct-21 08:33N 39°02' W 009°57'1414.5
2014-Oct-21 07:33N 38°47' W 009°57'1514.6
2014-Oct-21 06:33N 38°33' W 009°54'1514.7
2014-Oct-21 05:33N 38°19' W 009°50'1514.9
2014-Oct-21 04:33N 38°04' W 009°46'1515.1
2014-Oct-21 03:33N 37°49' W 009°41'1514.8
2014-Oct-21 02:33N 37°35' W 009°37'1515.1
2014-Oct-21 01:33N 37°20' W 009°33'1515.2
2014-Oct-21 00:33N 37°05' W 009°29'1514.6
2014-Oct-20 23:33N 36°51' W 009°25'1714.0
2014-Oct-20 22:20N 36°40' W 009°09'1314.6
2014-Oct-20 21:25N 36°36' W 008°53'1314.7
2014-Oct-20 20:33N 36°32' W 008°38'1614.7
2014-Oct-20 19:29N 36°28' W 008°19'  

Dump ship's entire track history